createdAt,value
2023-02-19T00:00:00.514Z,98691.40
2023-02-19T00:02:28.344Z,98694.00
2023-02-19T00:04:56.255Z,98694.80
2023-02-19T00:07:23.939Z,98682.60
2023-02-19T00:09:51.636Z,98682.20
2023-02-19T00:12:19.346Z,98683.60
2023-02-19T00:14:46.955Z,98680.40
2023-02-19T00:17:14.615Z,98672.20
2023-02-19T00:19:42.387Z,98671.40
2023-02-19T00:22:10.060Z,98672.20
2023-02-19T00:24:37.731Z,98672.20
2023-02-19T00:27:05.419Z,98674.80
2023-02-19T00:29:33.161Z,98682.20
2023-02-19T00:32:00.925Z,98692.20
2023-02-19T00:34:28.752Z,98678.40
2023-02-19T00:36:56.499Z,98686.60
2023-02-19T00:39:24.454Z,98685.40
2023-02-19T00:41:52.145Z,98682.40
2023-02-19T00:44:19.913Z,98685.00
2023-02-19T00:46:48.321Z,98675.20
2023-02-19T00:49:20.847Z,98679.60
2023-02-19T00:51:51.161Z,98672.00
2023-02-19T00:54:19.640Z,98674.40
2023-02-19T00:56:47.352Z,98677.20
2023-02-19T00:59:15.524Z,98677.00
2023-02-19T01:01:44.834Z,98683.40
2023-02-19T01:04:13.673Z,98671.80
2023-02-19T01:06:41.919Z,98667.60
2023-02-19T01:09:09.850Z,98675.00
2023-02-19T01:11:37.651Z,98687.80
2023-02-19T01:14:05.521Z,98685.20
2023-02-19T01:16:33.224Z,98678.80
2023-02-19T01:19:01.206Z,98679.60
2023-02-19T01:21:30.973Z,98675.60
2023-02-19T01:23:59.804Z,98677.20
2023-02-19T01:26:32.943Z,98674.60
2023-02-19T01:29:01.584Z,98672.40
2023-02-19T01:31:30.725Z,98678.40
2023-02-19T01:34:02.124Z,98675.20
2023-02-19T01:36:33.819Z,98669.00
2023-02-19T01:39:05.119Z,98672.20
2023-02-19T01:41:38.877Z,98664.60
2023-02-19T01:44:29.518Z,98670.60
2023-02-19T01:46:58.833Z,98663.40
2023-02-19T01:49:37.517Z,98664.00
2023-02-19T01:52:12.433Z,98657.00
2023-02-19T01:54:43.723Z,98650.40
2023-02-19T01:57:18.849Z,98644.20
2023-02-19T01:59:50.196Z,98635.40
2023-02-19T02:02:17.970Z,98640.00
2023-02-19T02:04:45.863Z,98630.00
2023-02-19T02:07:33.445Z,98635.20
2023-02-19T02:10:20.040Z,98628.40
2023-02-19T02:12:56.839Z,98628.00
2023-02-19T02:15:36.743Z,98620.20
2023-02-19T02:18:22.999Z,98624.40
2023-02-19T02:21:24.999Z,98621.20
2023-02-19T02:23:58.468Z,98622.00
2023-02-19T02:26:56.760Z,98618.00
2023-02-19T02:30:02.680Z,98620.40
2023-02-19T02:32:43.331Z,98611.40
2023-02-19T02:35:13.936Z,98614.20
2023-02-19T02:37:46.541Z,98604.40
2023-02-19T02:40:14.543Z,98606.40
2023-02-19T02:42:43.599Z,98601.00
2023-02-19T02:45:37.890Z,98590.00
2023-02-19T02:48:27.659Z,98597.00
2023-02-19T02:51:15.741Z,98588.40
2023-02-19T02:54:46.346Z,98579.80
2023-02-19T02:57:16.228Z,98580.60
2023-02-19T02:59:45.824Z,98575.00
2023-02-19T03:02:24.592Z,98570.40
2023-02-19T03:05:28.622Z,98561.40
2023-02-19T03:08:04.687Z,98561.80
2023-02-19T03:11:23.881Z,98556.60
2023-02-19T03:14:59.018Z,98564.80
2023-02-19T03:18:02.432Z,98565.80
2023-02-19T03:20:35.311Z,98560.40
2023-02-19T03:23:03.918Z,98553.80
2023-02-19T03:25:55.439Z,98551.00
2023-02-19T03:28:47.068Z,98554.40
2023-02-19T03:31:21.281Z,98556.60
2023-02-19T03:33:58.255Z,98556.60
2023-02-19T03:36:39.359Z,98563.40
2023-02-19T03:39:13.569Z,98560.80
2023-02-19T03:42:00.314Z,98554.40
2023-02-19T03:45:09.716Z,98550.60
2023-02-19T03:48:33.310Z,98543.20
2023-02-19T03:51:26.846Z,98549.00
2023-02-19T03:54:33.150Z,98539.80
2023-02-19T03:57:16.823Z,98537.40
2023-02-19T04:00:04.942Z,98541.00
2023-02-19T04:02:53.421Z,98535.40
2023-02-19T04:05:27.187Z,98535.20
2023-02-19T04:08:10.130Z,98542.80
2023-02-19T04:10:40.480Z,98541.40
2023-02-19T04:13:32.673Z,98538.20
2023-02-19T04:16:08.094Z,98543.40
2023-02-19T04:18:41.270Z,98543.80
2023-02-19T04:21:10.949Z,98540.40
2023-02-19T04:23:44.714Z,98535.20
2023-02-19T04:26:16.534Z,98537.00
2023-02-19T04:28:44.337Z,98530.00
2023-02-19T04:31:12.870Z,98531.80
2023-02-19T04:33:40.877Z,98528.20
2023-02-19T04:36:11.752Z,98522.80
2023-02-19T04:38:39.552Z,98511.60
2023-02-19T04:41:07.283Z,98502.80
2023-02-19T04:43:35.422Z,98496.80
2023-02-19T04:46:03.262Z,98495.60
2023-02-19T04:48:31.022Z,98495.60
2023-02-19T04:50:58.735Z,98495.60
2023-02-19T04:53:26.538Z,98498.40
2023-02-19T04:55:54.259Z,98506.00
2023-02-19T04:58:22.299Z,98498.00
2023-02-19T05:00:53.492Z,98498.20
2023-02-19T05:03:21.189Z,98495.40
2023-02-19T05:05:48.843Z,98494.00
2023-02-19T05:08:16.487Z,98494.20
2023-02-19T05:10:44.158Z,98492.00
2023-02-19T05:13:11.921Z,98487.20
2023-02-19T05:15:39.591Z,98481.80
2023-02-19T05:18:07.342Z,98465.80
2023-02-19T05:20:34.995Z,98474.60
2023-02-19T05:23:02.673Z,98474.40
2023-02-19T05:25:30.390Z,98466.00
2023-02-19T05:28:17.163Z,98466.60
2023-02-19T05:30:52.740Z,98462.60
2023-02-19T05:33:23.909Z,98466.80
2023-02-19T05:35:55.586Z,98458.80
2023-02-19T05:38:25.008Z,98451.40
2023-02-19T05:40:52.820Z,98452.20
2023-02-19T05:43:20.564Z,98462.60
2023-02-19T05:45:48.398Z,98467.00
2023-02-19T05:48:16.347Z,98456.80
2023-02-19T05:50:44.067Z,98464.60
2023-02-19T05:53:12.436Z,98462.60
2023-02-19T05:55:40.090Z,98460.60
2023-02-19T05:58:07.704Z,98460.80
2023-02-19T06:00:35.730Z,98462.20
2023-02-19T06:03:03.449Z,98457.00
2023-02-19T06:05:31.116Z,98457.40
2023-02-19T06:07:58.742Z,98455.00
2023-02-19T06:10:28.331Z,98456.00
2023-02-19T06:12:56.036Z,98456.60
2023-02-19T06:15:23.734Z,98448.20
2023-02-19T06:17:51.398Z,98461.60
2023-02-19T06:20:19.622Z,98468.00
2023-02-19T06:22:50.817Z,98464.40
2023-02-19T06:25:19.892Z,98470.40
2023-02-19T06:27:47.690Z,98465.80
2023-02-19T06:30:15.354Z,98467.60
2023-02-19T06:32:43.145Z,98468.20
2023-02-19T06:35:10.828Z,98471.00
2023-02-19T06:37:38.491Z,98471.40
2023-02-19T06:40:06.928Z,98470.40
2023-02-19T06:42:34.515Z,98470.80
2023-02-19T06:45:02.258Z,98464.20
2023-02-19T06:47:34.117Z,98460.80
2023-02-19T06:50:01.862Z,98467.00
2023-02-19T06:52:29.546Z,98463.80
2023-02-19T06:54:57.264Z,98465.60
2023-02-19T06:57:25.236Z,98461.60
2023-02-19T06:59:52.913Z,98465.20
2023-02-19T07:02:20.651Z,98458.60
2023-02-19T07:04:48.334Z,98466.00
2023-02-19T07:07:16.090Z,98465.60
2023-02-19T07:09:43.885Z,98472.20
2023-02-19T07:12:11.878Z,98472.60
2023-02-19T07:14:39.603Z,98473.60
2023-02-19T07:17:07.289Z,98470.40
2023-02-19T07:19:35.064Z,98478.60
2023-02-19T07:22:02.958Z,98474.40
2023-02-19T07:24:30.726Z,98469.20
2023-02-19T07:26:58.437Z,98475.20
2023-02-19T07:29:26.097Z,98476.40
2023-02-19T07:31:53.990Z,98473.40
2023-02-19T07:34:21.710Z,98468.80
2023-02-19T07:36:49.365Z,98462.40
2023-02-19T07:39:17.107Z,98461.20
2023-02-19T07:41:44.883Z,98466.00
2023-02-19T07:44:16.459Z,98467.20
2023-02-19T07:46:44.773Z,98471.80
2023-02-19T07:49:12.606Z,98476.20
2023-02-19T07:51:40.461Z,98474.40
2023-02-19T07:54:08.394Z,98480.80
2023-02-19T07:56:36.165Z,98475.20
2023-02-19T07:59:04.462Z,98469.40
2023-02-19T08:01:51.140Z,98473.60
2023-02-19T08:04:18.923Z,98466.20
2023-02-19T08:06:46.794Z,98464.20
2023-02-19T08:09:14.624Z,98465.60
2023-02-19T08:12:01.440Z,98464.00
2023-02-19T08:14:29.514Z,98465.20
2023-02-19T08:16:57.476Z,98468.80
2023-02-19T08:19:25.562Z,98476.00
2023-02-19T08:21:53.715Z,98480.40
2023-02-19T08:24:21.794Z,98481.80
2023-02-19T08:26:49.760Z,98490.60
2023-02-19T08:29:17.671Z,98499.80
2023-02-19T08:31:45.565Z,98505.60
2023-02-19T08:34:13.313Z,98497.80
2023-02-19T08:36:41.094Z,98499.40
2023-02-19T08:39:08.829Z,98499.40
2023-02-19T08:41:36.620Z,98495.00
2023-02-19T08:44:04.354Z,98502.20
2023-02-19T08:46:34.111Z,98506.60
2023-02-19T08:49:02.213Z,98514.20
2023-02-19T08:51:30.175Z,98516.20
2023-02-19T08:53:57.931Z,98522.00
2023-02-19T08:56:25.860Z,98526.60
2023-02-19T08:58:53.635Z,98534.00
2023-02-19T09:01:21.341Z,98545.80
2023-02-19T09:03:49.133Z,98558.20
2023-02-19T09:06:22.192Z,98559.00
2023-02-19T09:08:49.943Z,98564.00
2023-02-19T09:11:17.789Z,98558.00
2023-02-19T09:13:45.580Z,98557.60
2023-02-19T09:16:13.354Z,98566.80
2023-02-19T09:18:41.099Z,98569.20
2023-02-19T09:21:09.137Z,98574.60
2023-02-19T09:23:37.779Z,98576.40
2023-02-19T09:26:10.093Z,98585.00
2023-02-19T09:28:41.879Z,98585.00
2023-02-19T09:31:15.305Z,98585.60
2023-02-19T09:33:48.795Z,98583.80
2023-02-19T09:36:18.670Z,98584.40
2023-02-19T09:38:46.644Z,98591.80
2023-02-19T09:41:26.205Z,98601.00
2023-02-19T09:43:54.243Z,98604.40
2023-02-19T09:46:45.814Z,98606.00
2023-02-19T09:49:18.754Z,98606.80
2023-02-19T09:52:00.038Z,98619.80
2023-02-19T09:54:31.754Z,98617.20
2023-02-19T09:57:02.373Z,98621.60
2023-02-19T09:59:41.869Z,98621.80
2023-02-19T10:02:21.741Z,98626.80
2023-02-19T10:04:52.199Z,98628.60
2023-02-19T10:07:35.071Z,98627.20
2023-02-19T10:10:25.024Z,98622.80
2023-02-19T10:13:06.065Z,98631.80
2023-02-19T10:15:41.529Z,98629.40
2023-02-19T10:18:11.172Z,98631.80
2023-02-19T10:20:40.262Z,98632.80
2023-02-19T10:23:12.134Z,98642.40
2023-02-19T10:25:58.461Z,98642.40
2023-02-19T10:28:34.885Z,98657.20
2023-02-19T10:31:20.982Z,98653.00
2023-02-19T10:34:00.316Z,98650.60
2023-02-19T10:36:52.285Z,98647.40
2023-02-19T10:39:22.656Z,98660.60
2023-02-19T10:41:51.739Z,98662.20
2023-02-19T10:44:28.167Z,98666.80
2023-02-19T10:47:00.014Z,98670.80
2023-02-19T10:49:35.967Z,98675.20
2023-02-19T10:52:20.360Z,98677.40
2023-02-19T10:55:15.253Z,98673.00
2023-02-19T10:57:43.064Z,98681.80
2023-02-19T11:00:16.673Z,98678.60
2023-02-19T11:02:45.528Z,98681.40
2023-02-19T11:05:15.129Z,98686.00
2023-02-19T11:07:56.888Z,98690.20
2023-02-19T11:10:44.746Z,98682.40
2023-02-19T11:13:26.250Z,98684.80
2023-02-19T11:15:55.549Z,98692.20
2023-02-19T11:18:28.802Z,98697.80
2023-02-19T11:21:04.620Z,98703.20
2023-02-19T11:23:37.619Z,98708.80
2023-02-19T11:26:26.020Z,98705.20
2023-02-19T11:29:11.743Z,98712.20
2023-02-19T11:31:39.607Z,98719.00
2023-02-19T11:34:21.354Z,98723.80
2023-02-19T11:37:08.676Z,98731.80
2023-02-19T11:39:37.378Z,98733.80
2023-02-19T11:42:31.898Z,98734.00
2023-02-19T11:46:02.460Z,98737.40
2023-02-19T11:48:48.225Z,98746.80
2023-02-19T11:51:49.341Z,98743.60
2023-02-19T11:54:31.093Z,98743.40
2023-02-19T11:57:44.224Z,98741.20
2023-02-19T12:00:25.304Z,98735.40
2023-02-19T12:03:19.953Z,98741.60
2023-02-19T12:06:27.271Z,98744.20
2023-02-19T12:09:42.289Z,98738.60
2023-02-19T12:12:57.208Z,98739.20
2023-02-19T12:15:43.539Z,98744.60
2023-02-19T12:18:43.815Z,98746.80
2023-02-19T12:21:21.675Z,98742.40
2023-02-19T12:24:21.557Z,98750.80
2023-02-19T12:27:32.001Z,98754.80
2023-02-19T12:30:27.562Z,98759.60
2023-02-19T12:33:46.753Z,98767.00
2023-02-19T12:36:37.082Z,98770.20
2023-02-19T12:39:36.201Z,98769.00
2023-02-19T12:42:54.202Z,98777.20
2023-02-19T12:45:36.607Z,98773.20
2023-02-19T12:48:29.223Z,98773.20
2023-02-19T12:51:05.485Z,98782.40
2023-02-19T12:53:49.765Z,98786.40
2023-02-19T12:56:52.894Z,98783.60
2023-02-19T12:59:52.710Z,98790.60
2023-02-19T13:02:46.293Z,98799.80
2023-02-19T13:05:32.841Z,98795.00
2023-02-19T13:08:04.996Z,98799.60
2023-02-19T13:10:45.328Z,98801.40
2023-02-19T13:13:25.414Z,98804.80
2023-02-19T13:16:03.222Z,98813.40
2023-02-19T13:18:48.545Z,98810.80
2023-02-19T13:21:39.015Z,98814.20
2023-02-19T13:24:38.055Z,98822.80
2023-02-19T13:27:17.850Z,98816.80
2023-02-19T13:30:27.196Z,98826.40
2023-02-19T13:33:12.826Z,98836.20
2023-02-19T13:36:06.170Z,98831.40
2023-02-19T13:38:43.146Z,98841.60
2023-02-19T13:41:25.627Z,98838.60
2023-02-19T13:44:16.221Z,98843.80
2023-02-19T13:46:47.497Z,98847.20
2023-02-19T13:49:31.686Z,98847.80
2023-02-19T13:52:22.903Z,98861.20
2023-02-19T13:54:51.322Z,98861.60
2023-02-19T13:57:23.292Z,98858.80
2023-02-19T13:59:56.084Z,98868.40
2023-02-19T14:02:30.693Z,98876.80
2023-02-19T14:05:07.261Z,98877.80
2023-02-19T14:07:47.430Z,98879.00
2023-02-19T14:10:54.331Z,98887.80
2023-02-19T14:14:06.505Z,98886.00
2023-02-19T14:16:39.755Z,98888.40
2023-02-19T14:19:42.912Z,98887.00
2023-02-19T14:22:45.243Z,98890.40
2023-02-19T14:25:38.989Z,98897.00
2023-02-19T14:28:15.623Z,98897.40
2023-02-19T14:31:18.167Z,98906.20
2023-02-19T14:33:51.546Z,98914.20
2023-02-19T14:36:48.924Z,98920.60
2023-02-19T14:39:30.169Z,98919.00
2023-02-19T14:42:02.706Z,98924.40
2023-02-19T14:44:41.188Z,98925.00
2023-02-19T14:47:17.336Z,98925.60
2023-02-19T14:50:27.154Z,98925.80
2023-02-19T14:53:00.821Z,98930.40
2023-02-19T14:55:37.253Z,98935.20
2023-02-19T14:58:13.384Z,98930.40
2023-02-19T15:00:43.577Z,98933.60
2023-02-19T15:03:31.918Z,98932.80
2023-02-19T15:06:05.008Z,98939.20
2023-02-19T15:08:38.571Z,98943.80
2023-02-19T15:11:19.289Z,98946.60
2023-02-19T15:14:00.835Z,98944.60
2023-02-19T15:16:32.329Z,98944.00
2023-02-19T15:19:01.025Z,98941.40
2023-02-19T15:21:37.077Z,98945.00
2023-02-19T15:24:07.195Z,98950.00
2023-02-19T15:26:45.102Z,98951.00
2023-02-19T15:29:17.010Z,98954.20
2023-02-19T15:31:58.555Z,98964.20
2023-02-19T15:34:30.871Z,98974.80
2023-02-19T15:37:04.623Z,98984.40
2023-02-19T15:39:47.262Z,98990.20
2023-02-19T15:42:25.406Z,98999.40
2023-02-19T15:45:22.966Z,99001.80
2023-02-19T15:48:11.352Z,99006.60
2023-02-19T15:50:52.333Z,99015.60
2023-02-19T15:53:29.679Z,99024.20
2023-02-19T15:56:05.360Z,99027.60
2023-02-19T15:58:51.187Z,99028.40
2023-02-19T16:01:26.223Z,99029.20
2023-02-19T16:03:55.545Z,99032.20
2023-02-19T16:06:25.672Z,99038.80
2023-02-19T16:09:01.898Z,99043.00
2023-02-19T16:11:38.815Z,99043.60
2023-02-19T16:14:27.880Z,99050.60
2023-02-19T16:17:01.068Z,99054.80
2023-02-19T16:19:35.437Z,99066.80
2023-02-19T16:22:03.275Z,99064.60
2023-02-19T16:24:45.285Z,99068.60
2023-02-19T16:27:27.540Z,99078.80
2023-02-19T16:29:55.604Z,99089.00
2023-02-19T16:32:23.691Z,99085.80
2023-02-19T16:34:52.363Z,99096.60
2023-02-19T16:37:41.184Z,99108.60
2023-02-19T16:40:09.004Z,99114.00
2023-02-19T16:43:04.189Z,99118.40
2023-02-19T16:45:31.988Z,99122.40
2023-02-19T16:47:59.916Z,99120.60
2023-02-19T16:50:27.539Z,99129.20
2023-02-19T16:52:57.797Z,99136.20
2023-02-19T16:55:27.396Z,99132.40
2023-02-19T16:57:55.771Z,99134.00
2023-02-19T17:00:32.175Z,99131.00
2023-02-19T17:03:09.043Z,99132.80
2023-02-19T17:05:40.119Z,99139.60
2023-02-19T17:08:34.400Z,99145.00
2023-02-19T17:11:06.098Z,99147.40
2023-02-19T17:13:33.796Z,99146.40
2023-02-19T17:16:01.735Z,99152.60
2023-02-19T17:18:29.952Z,99159.60
2023-02-19T17:21:13.943Z,99155.60
2023-02-19T17:23:41.982Z,99162.00
2023-02-19T17:26:18.902Z,99167.40
2023-02-19T17:28:47.389Z,99181.80
2023-02-19T17:31:16.347Z,99189.80
2023-02-19T17:33:44.917Z,99192.00
2023-02-19T17:36:23.599Z,99199.60
2023-02-19T17:38:51.441Z,99207.80
2023-02-19T17:41:19.342Z,99201.00
2023-02-19T17:43:47.593Z,99198.40
2023-02-19T17:46:17.684Z,99206.80
2023-02-19T17:48:45.784Z,99209.80
2023-02-19T17:51:13.914Z,99215.60
2023-02-19T17:53:42.916Z,99220.60
2023-02-19T17:56:18.288Z,99229.40
2023-02-19T17:58:46.844Z,99232.80
2023-02-19T18:01:15.731Z,99237.80
2023-02-19T18:03:44.309Z,99240.20
2023-02-19T18:06:12.655Z,99255.60
2023-02-19T18:08:48.013Z,99250.80
2023-02-19T18:11:16.374Z,99260.60
2023-02-19T18:13:44.183Z,99258.40
2023-02-19T18:16:12.135Z,99266.80
2023-02-19T18:18:40.476Z,99264.80
2023-02-19T18:21:10.674Z,99264.20
2023-02-19T18:23:39.294Z,99257.00
2023-02-19T18:26:10.463Z,99259.60
2023-02-19T18:28:39.613Z,99260.60
2023-02-19T18:31:07.701Z,99264.60
2023-02-19T18:33:35.539Z,99278.00
2023-02-19T18:36:04.385Z,99272.00
2023-02-19T18:38:32.126Z,99279.40
2023-02-19T18:40:59.824Z,99285.20
2023-02-19T18:43:27.499Z,99291.60
2023-02-19T18:45:55.311Z,99286.20
2023-02-19T18:48:23.057Z,99300.80
2023-02-19T18:50:50.681Z,99300.40
2023-02-19T18:53:18.444Z,99297.60
2023-02-19T18:55:46.225Z,99296.20
2023-02-19T18:58:13.938Z,99297.60
2023-02-19T19:00:41.769Z,99302.00
2023-02-19T19:03:09.547Z,99301.20
2023-02-19T19:05:37.651Z,99301.20
2023-02-19T19:08:05.438Z,99297.40
2023-02-19T19:10:33.276Z,99301.80
2023-02-19T19:13:01.228Z,99302.20
2023-02-19T19:15:29.035Z,99308.00
2023-02-19T19:17:56.957Z,99304.80
2023-02-19T19:20:24.673Z,99308.00
2023-02-19T19:22:53.599Z,99317.40
2023-02-19T19:25:23.041Z,99331.00
2023-02-19T19:27:55.487Z,99326.80
2023-02-19T19:30:23.892Z,99329.60
2023-02-19T19:32:52.730Z,99329.80
2023-02-19T19:35:22.011Z,99332.40
2023-02-19T19:37:49.976Z,99325.00
2023-02-19T19:40:18.791Z,99325.80
2023-02-19T19:42:46.821Z,99328.00
2023-02-19T19:45:14.924Z,99338.20
2023-02-19T19:47:42.759Z,99334.80
2023-02-19T19:50:13.099Z,99334.00
2023-02-19T19:52:40.917Z,99340.00
2023-02-19T19:55:09.676Z,99337.20
2023-02-19T19:57:39.566Z,99339.80
2023-02-19T20:00:14.641Z,99338.80
2023-02-19T20:02:42.346Z,99338.40
2023-02-19T20:05:11.835Z,99351.40
2023-02-19T20:07:40.153Z,99348.40
2023-02-19T20:10:11.414Z,99351.20
2023-02-19T20:12:40.850Z,99352.40
2023-02-19T20:15:10.386Z,99351.00
2023-02-19T20:17:38.483Z,99352.00
2023-02-19T20:20:07.123Z,99360.40
2023-02-19T20:22:36.479Z,99362.60
2023-02-19T20:25:05.349Z,99367.20
2023-02-19T20:27:33.053Z,99364.40
2023-02-19T20:30:00.918Z,99365.80
2023-02-19T20:32:28.621Z,99367.40
2023-02-19T20:34:56.482Z,99381.40
2023-02-19T20:37:24.162Z,99373.40
2023-02-19T20:39:51.881Z,99380.40
2023-02-19T20:42:19.973Z,99374.20
2023-02-19T20:44:47.868Z,99378.60
2023-02-19T20:47:16.056Z,99386.00
2023-02-19T20:49:48.450Z,99389.20
2023-02-19T20:52:17.896Z,99396.00
2023-02-19T20:54:45.625Z,99396.40
2023-02-19T20:57:14.622Z,99407.00
2023-02-19T20:59:44.321Z,99407.20
2023-02-19T21:02:29.029Z,99414.20
2023-02-19T21:04:57.617Z,99415.40
2023-02-19T21:07:26.063Z,99415.00
2023-02-19T21:09:54.568Z,99415.00
2023-02-19T21:12:23.211Z,99418.20
2023-02-19T21:14:50.904Z,99421.60
2023-02-19T21:17:18.748Z,99420.80
2023-02-19T21:19:50.171Z,99428.20
2023-02-19T21:22:18.074Z,99431.00
2023-02-19T21:24:49.568Z,99435.60
2023-02-19T21:27:18.324Z,99442.40
2023-02-19T21:29:47.052Z,99442.20
2023-02-19T21:32:14.981Z,99447.00
2023-02-19T21:34:43.030Z,99450.00
2023-02-19T21:37:10.728Z,99447.60
2023-02-19T21:39:38.884Z,99446.80
2023-02-19T21:42:06.565Z,99450.60
2023-02-19T21:44:34.461Z,99453.20
2023-02-19T21:47:02.250Z,99449.40
2023-02-19T21:49:30.152Z,99451.60
2023-02-19T21:51:58.023Z,99452.80
2023-02-19T21:54:26.138Z,99457.80
2023-02-19T21:56:54.610Z,99464.40
2023-02-19T21:59:23.604Z,99461.60
2023-02-19T22:01:51.322Z,99461.00
2023-02-19T22:04:22.110Z,99463.80
2023-02-19T22:06:53.968Z,99461.00
2023-02-19T22:09:21.747Z,99464.80
2023-02-19T22:11:49.450Z,99474.20
2023-02-19T22:14:17.372Z,99471.00
2023-02-19T22:16:45.268Z,99479.20
2023-02-19T22:19:13.765Z,99479.40
2023-02-19T22:21:44.641Z,99479.20
2023-02-19T22:24:19.204Z,99480.80
2023-02-19T22:26:50.514Z,99484.40
2023-02-19T22:29:18.333Z,99490.60
2023-02-19T22:31:46.189Z,99483.20
2023-02-19T22:34:15.567Z,99489.00
2023-02-19T22:36:44.286Z,99486.40
2023-02-19T22:39:20.141Z,99485.80
2023-02-19T22:41:48.208Z,99491.80
2023-02-19T22:44:16.696Z,99493.00
2023-02-19T22:46:54.683Z,99501.60
2023-02-19T22:49:23.744Z,99501.80
2023-02-19T22:52:04.294Z,99506.00
2023-02-19T22:54:32.063Z,99501.40
2023-02-19T22:56:59.781Z,99511.00
2023-02-19T22:59:27.601Z,99518.60
2023-02-19T23:01:55.655Z,99518.60
2023-02-19T23:04:25.450Z,99517.20
2023-02-19T23:06:53.149Z,99519.60
2023-02-19T23:09:25.799Z,99517.60
2023-02-19T23:12:05.173Z,99528.60
2023-02-19T23:14:33.086Z,99538.40
2023-02-19T23:17:01.287Z,99539.80
2023-02-19T23:19:29.228Z,99538.20
2023-02-19T23:21:57.248Z,99540.60
2023-02-19T23:24:25.149Z,99533.00
2023-02-19T23:26:53.961Z,99530.00
2023-02-19T23:29:27.372Z,99525.00
2023-02-19T23:31:55.256Z,99520.20
2023-02-19T23:34:24.541Z,99521.80
2023-02-19T23:36:52.447Z,99518.80
2023-02-19T23:39:22.111Z,99524.00
2023-02-19T23:41:53.874Z,99513.60
2023-02-19T23:44:24.718Z,99511.80
2023-02-19T23:46:52.913Z,99513.60
2023-02-19T23:49:20.677Z,99515.00
2023-02-19T23:51:48.642Z,99506.40
2023-02-19T23:54:16.342Z,99511.00
2023-02-19T23:56:44.051Z,99506.60
2023-02-19T23:59:12.504Z,99501.60
